createdAt,value
2022-12-06T00:00:16.803Z,101348.13
2022-12-06T00:00:38.495Z,101357.78
2022-12-06T00:01:05.816Z,101359.53
2022-12-06T00:01:29.468Z,101355.13
2022-12-06T00:01:51.221Z,101352.50
2022-12-06T00:02:14.213Z,101356.91
2022-12-06T00:02:35.994Z,101349.00
2022-12-06T00:02:57.770Z,101358.66
2022-12-06T00:03:19.500Z,101357.81
2022-12-06T00:03:43.782Z,101352.50
2022-12-06T00:04:07.433Z,101358.69
2022-12-06T00:04:29.047Z,101355.16
2022-12-06T00:04:50.664Z,101350.75
2022-12-06T00:05:13.243Z,101353.41
2022-12-06T00:05:34.837Z,101349.88
2022-12-06T00:06:00.630Z,101350.75
2022-12-06T00:06:24.966Z,101344.59
2022-12-06T00:06:51.486Z,101348.97
2022-12-06T00:07:13.253Z,101348.97
2022-12-06T00:07:35.046Z,101349.84
2022-12-06T00:07:56.825Z,101350.72
2022-12-06T00:08:18.545Z,101348.97
2022-12-06T00:08:41.761Z,101345.47
2022-12-06T00:09:03.962Z,101337.56
2022-12-06T00:09:28.341Z,101351.59
2022-12-06T00:09:49.953Z,101345.44
2022-12-06T00:10:11.841Z,101354.25
2022-12-06T00:10:35.892Z,101349.84
2022-12-06T00:11:03.972Z,101348.09
2022-12-06T00:11:27.194Z,101348.97
2022-12-06T00:11:50.021Z,101349.84
2022-12-06T00:12:11.683Z,101348.97
2022-12-06T00:12:33.535Z,101360.41
2022-12-06T00:12:55.166Z,101353.38
2022-12-06T00:13:16.748Z,101348.97
2022-12-06T00:13:42.101Z,101339.28
2022-12-06T00:14:06.240Z,101355.06
2022-12-06T00:14:28.143Z,101346.28
2022-12-06T00:14:49.786Z,101346.28
2022-12-06T00:15:13.438Z,101342.78
2022-12-06T00:15:36.576Z,101339.28
2022-12-06T00:16:00.858Z,101344.53
2022-12-06T00:16:23.491Z,101349.81
2022-12-06T00:16:46.664Z,101355.09
2022-12-06T00:17:08.352Z,101346.28
2022-12-06T00:17:30.004Z,101345.41
2022-12-06T00:17:51.564Z,101350.66
2022-12-06T00:18:13.163Z,101342.75
2022-12-06T00:18:37.497Z,101349.75
2022-12-06T00:18:59.233Z,101349.75
2022-12-06T00:19:22.747Z,101356.78
2022-12-06T00:19:44.314Z,101348.91
2022-12-06T00:20:08.316Z,101344.50
2022-12-06T00:20:29.924Z,101345.41
2022-12-06T00:20:51.452Z,101350.69
2022-12-06T00:21:15.536Z,101346.28
2022-12-06T00:21:39.157Z,101352.44
2022-12-06T00:22:00.835Z,101346.34
2022-12-06T00:22:22.562Z,101344.56
2022-12-06T00:22:44.408Z,101340.19
2022-12-06T00:23:06.983Z,101347.19
2022-12-06T00:23:31.618Z,101351.59
2022-12-06T00:23:56.702Z,101349.81
2022-12-06T00:24:21.558Z,101347.19
2022-12-06T00:24:43.206Z,101344.56
2022-12-06T00:25:05.520Z,101348.94
2022-12-06T00:25:27.126Z,101347.19
2022-12-06T00:25:48.698Z,101341.06
2022-12-06T00:26:10.637Z,101356.00
2022-12-06T00:26:37.397Z,101355.09
2022-12-06T00:26:58.966Z,101354.22
2022-12-06T00:27:20.760Z,101351.59
2022-12-06T00:27:42.385Z,101346.31
2022-12-06T00:28:05.219Z,101355.09
2022-12-06T00:28:26.927Z,101353.38
2022-12-06T00:28:52.509Z,101343.72
2022-12-06T00:29:16.500Z,101347.22
2022-12-06T00:29:38.070Z,101344.59
2022-12-06T00:29:59.927Z,101331.44
2022-12-06T00:30:21.727Z,101345.50
2022-12-06T00:30:44.301Z,101349.00
2022-12-06T00:31:08.013Z,101355.16
2022-12-06T00:31:31.374Z,101345.47
2022-12-06T00:31:54.525Z,101343.72
2022-12-06T00:32:19.442Z,101349.00
2022-12-06T00:32:41.430Z,101349.84
2022-12-06T00:33:03.264Z,101349.88
2022-12-06T00:33:25.848Z,101352.50
2022-12-06T00:33:47.510Z,101354.25
2022-12-06T00:34:09.400Z,101348.97
2022-12-06T00:34:31.021Z,101348.97
2022-12-06T00:34:53.528Z,101345.47
2022-12-06T00:35:15.350Z,101346.34
2022-12-06T00:35:37.133Z,101349.00
2022-12-06T00:36:00.889Z,101348.09
2022-12-06T00:36:26.790Z,101342.84
2022-12-06T00:36:48.839Z,101334.97
2022-12-06T00:37:10.419Z,101352.50
2022-12-06T00:37:31.992Z,101354.28
2022-12-06T00:37:54.619Z,101351.66
2022-12-06T00:38:16.205Z,101344.63
2022-12-06T00:38:38.076Z,101357.81
2022-12-06T00:39:00.097Z,101350.78
2022-12-06T00:39:21.685Z,101345.50
2022-12-06T00:39:44.321Z,101336.72
2022-12-06T00:40:07.137Z,101344.63
2022-12-06T00:40:28.825Z,101347.25
2022-12-06T00:40:50.581Z,101349.03
2022-12-06T00:41:15.067Z,101347.25
2022-12-06T00:41:37.319Z,101338.50
2022-12-06T00:41:58.982Z,101347.25
2022-12-06T00:42:20.546Z,101349.91
2022-12-06T00:42:42.104Z,101346.38
2022-12-06T00:43:04.728Z,101341.97
2022-12-06T00:43:26.405Z,101346.38
2022-12-06T00:43:48.857Z,101341.09
2022-12-06T00:44:12.470Z,101338.44
2022-12-06T00:44:35.078Z,101346.38
2022-12-06T00:44:56.750Z,101350.78
2022-12-06T00:45:18.378Z,101334.97
2022-12-06T00:45:40.026Z,101349.00
2022-12-06T00:46:04.575Z,101347.25
2022-12-06T00:46:28.653Z,101341.09
2022-12-06T00:46:50.354Z,101346.34
2022-12-06T00:47:12.946Z,101341.94
2022-12-06T00:47:34.527Z,101354.25
2022-12-06T00:47:56.160Z,101343.69
2022-12-06T00:48:17.772Z,101344.56
2022-12-06T00:48:39.503Z,101342.81
2022-12-06T00:49:03.764Z,101346.34
2022-12-06T00:49:25.365Z,101349.81
2022-12-06T00:49:47.035Z,101340.16
2022-12-06T00:50:09.561Z,101343.66
2022-12-06T00:50:32.158Z,101348.94
2022-12-06T00:50:54.114Z,101345.41
2022-12-06T00:51:18.101Z,101340.13
2022-12-06T00:51:41.158Z,101347.19
2022-12-06T00:52:02.818Z,101343.63
2022-12-06T00:52:24.434Z,101321.72
2022-12-06T00:52:46.016Z,101337.47
2022-12-06T00:53:07.615Z,101344.53
2022-12-06T00:53:29.469Z,101328.72
2022-12-06T00:53:52.509Z,101340.97
2022-12-06T00:54:15.144Z,101345.38
2022-12-06T00:54:36.765Z,101339.19
2022-12-06T00:54:59.416Z,101339.19
2022-12-06T00:55:20.988Z,101346.25
2022-12-06T00:55:42.976Z,101334.81
2022-12-06T00:56:05.203Z,101340.97
2022-12-06T00:56:27.291Z,101337.44
2022-12-06T00:56:49.973Z,101341.84
2022-12-06T00:57:11.533Z,101336.56
2022-12-06T00:57:33.084Z,101341.84
2022-12-06T00:57:54.660Z,101341.81
2022-12-06T00:58:17.071Z,101335.69
2022-12-06T00:58:39.998Z,101324.28
2022-12-06T00:59:01.569Z,101334.78
2022-12-06T00:59:24.501Z,101339.16
2022-12-06T00:59:46.062Z,101337.41
2022-12-06T01:00:09.708Z,101337.41
2022-12-06T01:00:31.347Z,101335.66
2022-12-06T01:00:53.178Z,101340.94
2022-12-06T01:01:16.584Z,101339.16
2022-12-06T01:01:39.397Z,101335.66
2022-12-06T01:02:01.035Z,101343.56
2022-12-06T01:02:22.606Z,101335.63
2022-12-06T01:02:44.417Z,101344.41
2022-12-06T01:03:06.201Z,101342.66
2022-12-06T01:03:34.860Z,101340.03
2022-12-06T01:03:59.714Z,101339.16
2022-12-06T01:04:21.339Z,101340.00
2022-12-06T01:04:42.934Z,101336.50
2022-12-06T01:05:06.069Z,101343.56
2022-12-06T01:05:28.266Z,101337.38
2022-12-06T01:05:50.718Z,101337.38
2022-12-06T01:06:14.834Z,101337.38
2022-12-06T01:06:39.186Z,101335.63
2022-12-06T01:07:01.043Z,101336.50
2022-12-06T01:07:22.613Z,101341.78
2022-12-06T01:07:44.262Z,101335.69
2022-12-06T01:08:06.041Z,101334.81
2022-12-06T01:08:28.631Z,101337.44
2022-12-06T01:08:50.556Z,101340.97
2022-12-06T01:09:12.388Z,101339.19
2022-12-06T01:09:34.005Z,101333.00
2022-12-06T01:09:57.532Z,101341.81
2022-12-06T01:10:19.676Z,101336.53
2022-12-06T01:10:41.533Z,101332.16
2022-12-06T01:11:03.766Z,101330.34
2022-12-06T01:11:26.822Z,101335.63
2022-12-06T01:11:49.495Z,101340.03
2022-12-06T01:12:11.202Z,101338.28
2022-12-06T01:12:32.849Z,101333.00
2022-12-06T01:12:54.395Z,101328.63
2022-12-06T01:13:16.932Z,101327.75
2022-12-06T01:13:38.612Z,101338.25
2022-12-06T01:14:00.753Z,101336.53
2022-12-06T01:14:23.767Z,101329.50
2022-12-06T01:14:46.429Z,101329.50
2022-12-06T01:15:09.038Z,101335.66
2022-12-06T01:15:31.787Z,101333.91
2022-12-06T01:15:54.230Z,101337.41
2022-12-06T01:16:18.575Z,101334.75
2022-12-06T01:16:41.869Z,101330.41
2022-12-06T01:17:03.652Z,101333.91
2022-12-06T01:17:25.712Z,101326.00
2022-12-06T01:17:47.368Z,101338.25
2022-12-06T01:18:10.021Z,101337.38
2022-12-06T01:18:31.651Z,101340.03
2022-12-06T01:18:55.548Z,101340.03
2022-12-06T01:19:18.107Z,101340.91
2022-12-06T01:19:39.702Z,101340.03
2022-12-06T01:20:01.504Z,101338.25
2022-12-06T01:20:23.477Z,101336.50
2022-12-06T01:20:46.031Z,101339.16
2022-12-06T01:21:09.740Z,101335.66
2022-12-06T01:21:31.603Z,101333.88
2022-12-06T01:21:53.186Z,101340.91
2022-12-06T01:22:15.871Z,101336.53
2022-12-06T01:22:37.484Z,101340.03
2022-12-06T01:22:59.056Z,101328.66
2022-12-06T01:23:20.672Z,101338.28
2022-12-06T01:23:42.685Z,101341.81
2022-12-06T01:24:05.859Z,101341.81
2022-12-06T01:24:27.458Z,101346.22
2022-12-06T01:24:49.049Z,101310.22
2022-12-06T01:25:10.881Z,101342.66
2022-12-06T01:25:35.816Z,101344.44
2022-12-06T01:25:58.896Z,101343.56
2022-12-06T01:26:23.586Z,101345.31
2022-12-06T01:26:45.178Z,101349.72
2022-12-06T01:27:07.424Z,101337.41
2022-12-06T01:27:29.077Z,101340.94
2022-12-06T01:27:51.827Z,101345.31
2022-12-06T01:28:13.405Z,101335.66
2022-12-06T01:28:35.061Z,101342.66
2022-12-06T01:28:58.108Z,101348.81
2022-12-06T01:29:20.818Z,101340.03
2022-12-06T01:29:43.821Z,101336.50
2022-12-06T01:30:07.270Z,101347.06
2022-12-06T01:30:29.692Z,101345.31
2022-12-06T01:30:51.419Z,101342.66
2022-12-06T01:31:14.898Z,101344.41
2022-12-06T01:31:38.984Z,101346.19
2022-12-06T01:32:00.952Z,101345.31
2022-12-06T01:33:08.268Z,101345.28
2022-12-06T01:33:29.877Z,101354.06
2022-12-06T01:33:51.507Z,101347.91
2022-12-06T01:34:16.621Z,101341.78
2022-12-06T01:34:38.734Z,101336.50
2022-12-06T01:35:00.313Z,101353.22
2022-12-06T01:35:21.954Z,101342.66
2022-12-06T01:35:43.856Z,101348.78
2022-12-06T01:36:06.771Z,101344.44
2022-12-06T01:36:28.385Z,101352.31
2022-12-06T01:36:50.296Z,101341.75
2022-12-06T01:37:12.110Z,101352.28
2022-12-06T01:37:33.803Z,101348.78
2022-12-06T01:37:56.338Z,101346.97
2022-12-06T01:38:18.269Z,101344.34
2022-12-06T01:38:39.818Z,101338.22
2022-12-06T01:39:06.460Z,101353.13
2022-12-06T01:39:29.061Z,101351.41
2022-12-06T01:39:50.718Z,101346.13
2022-12-06T01:40:13.529Z,101345.25
2022-12-06T01:40:38.824Z,101347.91
2022-12-06T01:41:00.517Z,101350.50
2022-12-06T01:41:25.249Z,101352.25
2022-12-06T01:41:46.782Z,101349.63
2022-12-06T01:42:10.686Z,101353.16
2022-12-06T01:42:32.326Z,101352.25
2022-12-06T01:42:54.827Z,101346.97
2022-12-06T01:43:33.805Z,101341.72
2022-12-06T01:43:55.981Z,101351.38
2022-12-06T01:44:44.879Z,101351.38
2022-12-06T01:45:07.675Z,101349.59
2022-12-06T01:45:29.286Z,101346.09
2022-12-06T01:45:50.895Z,101346.09
2022-12-06T01:46:26.089Z,101352.25
2022-12-06T01:46:48.021Z,101353.16
2022-12-06T01:47:13.557Z,101348.75
2022-12-06T01:47:39.982Z,101346.09
2022-12-06T01:48:01.901Z,101344.34
2022-12-06T01:48:26.448Z,101341.72
2022-12-06T01:48:50.325Z,101347.88
2022-12-06T01:49:20.056Z,101345.22
2022-12-06T01:49:44.479Z,101346.09
2022-12-06T01:50:11.662Z,101335.59
2022-12-06T01:50:33.720Z,101344.34
2022-12-06T01:50:58.244Z,101347.00
2022-12-06T01:51:21.277Z,101352.25
2022-12-06T01:51:45.855Z,101345.22
2022-12-06T01:52:13.371Z,101342.59
2022-12-06T01:52:39.711Z,101347.88
2022-12-06T01:53:06.594Z,101349.63
2022-12-06T01:53:28.205Z,101344.31
2022-12-06T01:53:53.869Z,101347.84
2022-12-06T01:54:17.271Z,101346.06
2022-12-06T01:54:40.209Z,101346.97
2022-12-06T01:55:03.116Z,101342.56
2022-12-06T01:55:29.517Z,101331.16
2022-12-06T01:55:52.745Z,101339.94
2022-12-06T01:56:14.939Z,101344.31
2022-12-06T01:56:38.332Z,101346.97
2022-12-06T01:57:05.241Z,101338.19
2022-12-06T01:57:27.400Z,101348.72
2022-12-06T01:57:51.502Z,101339.94
2022-12-06T01:58:18.423Z,101341.72
2022-12-06T01:58:43.425Z,101339.06
2022-12-06T01:59:06.427Z,101337.31
2022-12-06T01:59:29.294Z,101336.44
2022-12-06T01:59:52.270Z,101337.31
2022-12-06T02:00:16.037Z,101343.44
2022-12-06T02:00:37.756Z,101341.69
2022-12-06T02:01:01.241Z,101328.47
2022-12-06T02:01:25.008Z,101339.03
2022-12-06T02:01:48.399Z,101335.53
2022-12-06T02:02:10.303Z,101330.22
2022-12-06T02:02:31.969Z,101341.66
2022-12-06T02:02:55.879Z,101327.56
2022-12-06T02:03:22.418Z,101331.97
2022-12-06T02:03:45.944Z,101336.38
2022-12-06T02:04:08.720Z,101332.84
2022-12-06T02:04:31.689Z,101334.66
2022-12-06T02:04:54.898Z,101337.25
2022-12-06T02:05:17.390Z,101328.47
2022-12-06T02:05:40.831Z,101335.50
2022-12-06T02:06:07.099Z,101335.50
2022-12-06T02:06:30.173Z,101327.59
2022-12-06T02:06:54.007Z,101329.38
2022-12-06T02:07:16.842Z,101330.25
2022-12-06T02:07:39.791Z,101329.38
2022-12-06T02:08:01.628Z,101328.47
2022-12-06T02:08:24.535Z,101324.94
2022-12-06T02:08:46.802Z,101325.84
2022-12-06T02:09:12.013Z,101330.25
2022-12-06T02:09:36.051Z,101324.97
2022-12-06T02:09:58.278Z,101330.22
2022-12-06T02:10:20.570Z,101331.97
2022-12-06T02:10:42.528Z,101333.75
2022-12-06T02:11:05.985Z,101337.25
2022-12-06T02:11:32.076Z,101324.94
2022-12-06T02:11:56.651Z,101325.81
2022-12-06T02:12:18.357Z,101332.84
2022-12-06T02:12:40.948Z,101334.63
2022-12-06T02:13:03.167Z,101331.97
2022-12-06T02:13:25.287Z,101328.44
2022-12-06T02:13:47.374Z,101324.94
2022-12-06T02:14:12.966Z,101335.50
2022-12-06T02:14:35.365Z,101325.81
2022-12-06T02:14:59.534Z,101330.22
2022-12-06T02:15:30.516Z,101322.28
2022-12-06T02:15:59.703Z,101329.31
2022-12-06T02:16:39.281Z,101327.56
2022-12-06T02:17:12.169Z,101332.84
2022-12-06T02:17:45.386Z,101337.25
2022-12-06T02:18:13.664Z,101327.56
2022-12-06T02:18:43.739Z,101331.13
2022-12-06T02:19:25.048Z,101335.53
2022-12-06T02:20:08.612Z,101333.75
2022-12-06T02:20:33.426Z,101331.97
2022-12-06T02:21:05.528Z,101336.38
2022-12-06T02:21:38.762Z,101330.22
2022-12-06T02:22:06.253Z,101328.47
2022-12-06T02:22:38.129Z,101336.38
2022-12-06T02:23:25.272Z,101332.84
2022-12-06T02:24:11.643Z,101335.50
2022-12-06T02:25:06.498Z,101334.63
2022-12-06T02:25:51.348Z,101331.09
2022-12-06T02:26:24.711Z,101331.13
2022-12-06T02:26:49.416Z,101332.88
2022-12-06T02:27:34.776Z,101329.41
2022-12-06T02:28:20.950Z,101329.41
2022-12-06T02:29:20.511Z,101332.91
2022-12-06T02:30:08.784Z,101331.16
2022-12-06T02:30:43.927Z,101327.59
2022-12-06T02:31:09.883Z,101336.44
2022-12-06T02:31:36.924Z,101324.13
2022-12-06T02:32:01.333Z,101329.41
2022-12-06T02:32:29.286Z,101329.41
2022-12-06T02:32:55.870Z,101326.78
2022-12-06T02:33:23.359Z,101326.75
2022-12-06T02:33:49.226Z,101327.63
2022-12-06T02:34:17.278Z,101320.59
2022-12-06T02:34:45.314Z,101325.00
2022-12-06T02:35:12.808Z,101322.38
2022-12-06T02:35:39.033Z,101322.34
2022-12-06T02:36:07.927Z,101325.00
2022-12-06T02:36:33.813Z,101322.34
2022-12-06T02:37:00.363Z,101324.09
2022-12-06T02:37:27.405Z,101320.59
2022-12-06T02:37:54.391Z,101324.13
2022-12-06T02:38:22.471Z,101318.91
2022-12-06T02:38:48.872Z,101318.00
2022-12-06T02:39:16.359Z,101316.25
2022-12-06T02:39:46.493Z,101318.88
2022-12-06T02:40:12.042Z,101315.31
2022-12-06T02:40:38.083Z,101321.47
2022-12-06T02:41:05.365Z,101309.19
2022-12-06T02:41:33.668Z,101320.59
2022-12-06T02:41:59.317Z,101316.19
2022-12-06T02:42:25.889Z,101286.41
2022-12-06T02:42:53.614Z,101321.44
2022-12-06T02:43:19.919Z,101319.72
2022-12-06T02:43:45.855Z,101323.25
2022-12-06T02:44:16.630Z,101324.16
2022-12-06T02:44:44.241Z,101302.25
2022-12-06T02:45:12.758Z,101320.66
2022-12-06T02:45:42.920Z,101314.53
2022-12-06T02:46:07.039Z,101313.66
2022-12-06T02:46:33.101Z,101319.81
2022-12-06T02:46:58.483Z,101318.00
2022-12-06T02:47:23.625Z,101318.00
2022-12-06T02:47:49.099Z,101315.34
2022-12-06T02:48:12.716Z,101315.34
2022-12-06T02:48:34.869Z,101302.19
2022-12-06T02:48:59.447Z,101316.22
2022-12-06T02:49:25.407Z,101312.69
2022-12-06T02:49:50.059Z,101317.13
2022-12-06T02:50:17.648Z,101310.94
2022-12-06T02:50:44.082Z,101311.81
2022-12-06T02:51:09.330Z,101296.91
2022-12-06T02:51:32.931Z,101318.84
2022-12-06T02:51:56.620Z,101313.56
2022-12-06T02:52:20.860Z,101319.72
2022-12-06T02:52:45.798Z,101314.44
2022-12-06T02:53:12.629Z,101313.56
2022-12-06T02:53:38.881Z,101320.59
2022-12-06T02:54:03.921Z,101317.09
2022-12-06T02:54:28.144Z,101313.53
2022-12-06T02:54:51.754Z,101323.22
2022-12-06T02:55:15.593Z,101319.69
2022-12-06T02:55:38.291Z,101322.34
2022-12-06T02:56:00.697Z,101322.34
2022-12-06T02:56:23.589Z,101319.69
2022-12-06T02:56:45.152Z,101320.56
2022-12-06T02:57:06.897Z,101316.16
2022-12-06T02:57:40.447Z,101313.56
2022-12-06T02:58:02.050Z,101324.09
2022-12-06T02:58:23.706Z,101321.41
2022-12-06T02:58:45.818Z,101322.28
2022-12-06T02:59:08.421Z,101329.34
2022-12-06T02:59:29.948Z,101310.84
2022-12-06T02:59:53.770Z,101322.25
2022-12-06T03:00:35.430Z,101325.84
2022-12-06T03:01:02.620Z,101324.06
2022-12-06T03:01:27.699Z,101317.91
2022-12-06T03:01:52.672Z,101317.03
2022-12-06T03:02:14.405Z,101318.78
2022-12-06T03:02:37.880Z,101317.03
2022-12-06T03:03:10.328Z,101318.81
2022-12-06T03:03:50.711Z,101321.41
2022-12-06T03:04:46.186Z,101311.75
2022-12-06T03:05:16.013Z,101317.03
2022-12-06T03:05:42.246Z,101326.66
2022-12-06T03:06:34.592Z,101316.97
2022-12-06T03:07:09.970Z,101312.56
2022-12-06T03:07:40.415Z,101316.97
2022-12-06T03:08:07.091Z,101316.06
2022-12-06T03:08:39.241Z,101318.72
2022-12-06T03:09:10.299Z,101295.06
2022-12-06T03:09:46.317Z,101305.59
2022-12-06T03:10:40.814Z,101303.81
2022-12-06T03:11:03.881Z,101293.34
2022-12-06T03:11:31.579Z,101309.97
2022-12-06T03:11:59.696Z,101316.13
2022-12-06T03:12:30.957Z,101308.22
2022-12-06T03:13:01.554Z,101310.84
2022-12-06T03:13:30.426Z,101305.63
2022-12-06T03:13:57.918Z,101310.00
2022-12-06T03:14:23.115Z,101312.66
2022-12-06T03:14:53.632Z,101313.53
2022-12-06T03:15:23.852Z,101290.72
2022-12-06T03:15:54.043Z,101305.63
2022-12-06T03:16:23.921Z,101307.34
2022-12-06T03:16:49.440Z,101302.03
2022-12-06T03:17:19.234Z,101301.16
2022-12-06T03:17:46.171Z,101311.69
2022-12-06T03:18:14.061Z,101295.03
2022-12-06T03:18:42.962Z,101304.66
2022-12-06T03:19:09.695Z,101311.72
2022-12-06T03:19:33.119Z,101301.16
2022-12-06T03:19:59.394Z,101311.72
2022-12-06T03:20:26.387Z,101309.94
2022-12-06T03:20:53.897Z,101301.19
2022-12-06T03:21:22.968Z,101309.97
2022-12-06T03:21:50.033Z,101310.84
2022-12-06T03:22:16.217Z,101313.50
2022-12-06T03:22:42.042Z,101311.75
2022-12-06T03:23:07.733Z,101309.06
2022-12-06T03:23:34.446Z,101305.59
2022-12-06T03:23:56.630Z,101306.47
2022-12-06T03:24:21.801Z,101309.09
2022-12-06T03:24:45.688Z,101309.97
2022-12-06T03:25:10.099Z,101301.19
2022-12-06T03:25:35.642Z,101311.72
2022-12-06T03:26:00.639Z,101309.91
2022-12-06T03:26:28.689Z,101304.63
2022-12-06T03:26:52.799Z,101307.28
2022-12-06T03:27:18.057Z,101307.28
2022-12-06T03:27:42.400Z,101305.50
2022-12-06T03:28:07.853Z,101310.78
2022-12-06T03:28:30.275Z,101309.06
2022-12-06T03:28:56.813Z,101303.75
2022-12-06T03:29:23.866Z,101309.91
2022-12-06T03:29:51.175Z,101304.63
2022-12-06T03:30:15.178Z,101302.03
2022-12-06T03:30:37.846Z,101312.56
2022-12-06T03:31:03.663Z,101302.03
2022-12-06T03:31:30.230Z,101304.63
2022-12-06T03:31:53.978Z,101305.50
2022-12-06T03:32:19.000Z,101303.78
2022-12-06T03:32:44.026Z,101288.91
2022-12-06T03:33:06.786Z,101303.81
2022-12-06T03:33:32.054Z,101302.94
2022-12-06T03:33:58.389Z,101298.53
2022-12-06T03:34:25.515Z,101295.91
2022-12-06T03:34:51.998Z,101296.75
2022-12-06T03:35:19.386Z,101302.03
2022-12-06T03:35:42.309Z,101263.44
2022-12-06T03:36:04.199Z,101300.25
2022-12-06T03:36:29.594Z,101302.00
2022-12-06T03:36:53.175Z,101293.19
2022-12-06T03:37:18.240Z,101301.13
2022-12-06T03:37:43.294Z,101299.34
2022-12-06T03:38:10.964Z,101292.28
2022-12-06T03:38:36.927Z,101297.53
2022-12-06T03:39:01.646Z,101294.91
2022-12-06T03:39:29.237Z,101305.47
2022-12-06T03:39:59.847Z,101299.31
2022-12-06T03:40:26.549Z,101282.63
2022-12-06T03:40:52.046Z,101302.84
2022-12-06T03:41:16.464Z,101299.31
2022-12-06T03:41:44.548Z,101301.97
2022-12-06T03:42:06.668Z,101303.69
2022-12-06T03:42:29.273Z,101301.09
2022-12-06T03:42:51.483Z,101299.28
2022-12-06T03:43:14.446Z,101301.94
2022-12-06T03:43:36.554Z,101295.75
2022-12-06T03:43:59.632Z,101293.16
2022-12-06T03:44:22.421Z,101297.56
2022-12-06T03:44:45.146Z,101297.56
2022-12-06T03:45:09.819Z,101300.19
2022-12-06T03:45:38.094Z,101290.56
2022-12-06T03:46:06.727Z,101297.59
2022-12-06T03:46:35.035Z,101295.84
2022-12-06T03:47:02.066Z,101296.72
2022-12-06T03:47:31.232Z,101298.47
2022-12-06T03:48:01.361Z,101301.09
2022-12-06T03:48:27.485Z,101291.44
2022-12-06T03:48:52.690Z,101294.06
2022-12-06T03:49:17.633Z,101294.94
2022-12-06T03:49:43.783Z,101293.19
2022-12-06T03:50:09.746Z,101285.31
2022-12-06T03:50:36.768Z,101292.28
2022-12-06T03:51:04.027Z,101297.56
2022-12-06T03:51:28.380Z,101293.16
2022-12-06T03:51:50.136Z,101295.81
2022-12-06T03:52:12.836Z,101301.97
2022-12-06T03:52:35.452Z,101301.03
2022-12-06T03:52:57.534Z,101288.78
2022-12-06T03:53:20.250Z,101297.53
2022-12-06T03:53:48.138Z,101295.81
2022-12-06T03:54:10.409Z,101295.81
2022-12-06T03:54:32.116Z,101297.56
2022-12-06T03:54:53.678Z,101291.44
2022-12-06T03:55:15.277Z,101299.28
2022-12-06T03:55:37.878Z,101294.88
2022-12-06T03:55:59.759Z,101295.75
2022-12-06T03:56:23.481Z,101294.03
2022-12-06T03:56:45.197Z,101301.03
2022-12-06T03:57:07.978Z,101287.00
2022-12-06T03:57:29.649Z,101281.75
2022-12-06T03:57:51.194Z,101297.56
2022-12-06T03:58:13.239Z,101290.47
2022-12-06T03:58:35.778Z,101294.00
2022-12-06T03:58:57.339Z,101286.09
2022-12-06T03:59:18.913Z,101296.59
2022-12-06T03:59:40.572Z,101286.97
2022-12-06T04:00:02.328Z,101290.53
2022-12-06T04:00:34.044Z,101295.75
2022-12-06T04:00:55.716Z,101288.72
2022-12-06T04:01:17.351Z,101293.13
2022-12-06T04:01:40.369Z,101301.91
2022-12-06T04:02:03.134Z,101287.84
2022-12-06T04:02:24.845Z,101287.84
2022-12-06T04:02:46.671Z,101301.94
2022-12-06T04:03:08.449Z,101299.28
2022-12-06T04:03:31.050Z,101287.00
2022-12-06T04:03:52.635Z,101294.00
2022-12-06T04:04:14.439Z,101295.75
2022-12-06T04:04:36.112Z,101295.75
2022-12-06T04:04:59.197Z,101301.03
2022-12-06T04:05:20.970Z,101289.63
2022-12-06T04:05:42.749Z,101294.88
2022-12-06T04:06:05.910Z,101297.50
2022-12-06T04:06:29.055Z,101286.09
2022-12-06T04:06:50.744Z,101292.22
2022-12-06T04:07:12.437Z,101298.41
2022-12-06T04:07:34.173Z,101295.72
2022-12-06T04:07:56.805Z,101296.59
2022-12-06T04:08:18.451Z,101290.44
2022-12-06T04:08:40.109Z,101294.81
2022-12-06T04:09:16.658Z,101297.44
2022-12-06T04:09:56.165Z,101287.81
2022-12-06T04:10:18.689Z,101288.66
2022-12-06T04:10:40.258Z,101291.28
2022-12-06T04:11:02.087Z,101294.84
2022-12-06T04:11:24.665Z,101293.94
2022-12-06T04:11:46.428Z,101300.09
2022-12-06T04:12:28.295Z,101295.69
2022-12-06T04:13:02.155Z,101294.81
2022-12-06T04:13:23.775Z,101299.25
2022-12-06T04:13:46.383Z,101301.00
2022-12-06T04:14:07.990Z,101296.59
2022-12-06T04:14:32.378Z,101292.22
2022-12-06T04:14:54.032Z,101297.53
2022-12-06T04:15:16.777Z,101295.75
2022-12-06T04:15:40.487Z,101297.53
2022-12-06T04:16:02.520Z,101291.38
2022-12-06T04:16:42.871Z,101298.41
2022-12-06T04:17:24.807Z,101295.75
2022-12-06T04:18:04.991Z,101297.53
2022-12-06T04:18:27.690Z,101291.41
2022-12-06T04:18:49.263Z,101301.03
2022-12-06T04:19:10.878Z,101304.56
2022-12-06T04:19:33.435Z,101301.09
2022-12-06T04:19:55.001Z,101297.53
2022-12-06T04:20:16.868Z,101301.09
2022-12-06T04:21:04.956Z,101296.69
2022-12-06T04:21:45.250Z,101301.03
2022-12-06T04:22:25.732Z,101304.56
2022-12-06T04:23:05.729Z,101305.44
2022-12-06T04:23:28.006Z,101299.31
2022-12-06T04:23:52.382Z,101301.97
2022-12-06T04:24:14.042Z,101291.41
2022-12-06T04:24:35.725Z,101294.91
2022-12-06T04:24:57.302Z,101297.56
2022-12-06T04:25:18.946Z,101307.25
2022-12-06T04:25:40.614Z,101301.03
2022-12-06T04:26:04.371Z,101296.69
2022-12-06T04:26:26.952Z,101298.41
2022-12-06T04:26:48.657Z,101300.19
2022-12-06T04:27:28.881Z,101295.75
2022-12-06T04:28:09.011Z,101296.66
2022-12-06T04:28:49.025Z,101294.88
2022-12-06T04:29:29.011Z,101297.53
2022-12-06T04:30:09.049Z,101298.41
2022-12-06T04:30:49.133Z,101288.72
2022-12-06T04:31:29.501Z,101298.41
2022-12-06T04:32:09.451Z,101290.47
2022-12-06T04:32:51.037Z,101291.31
2022-12-06T04:33:31.431Z,101295.75
2022-12-06T04:34:11.488Z,101301.88
2022-12-06T04:34:51.585Z,101297.50
2022-12-06T04:35:31.531Z,101293.13
2022-12-06T04:36:14.663Z,101298.38
2022-12-06T04:36:58.211Z,101295.72
2022-12-06T04:37:38.431Z,101296.59
2022-12-06T04:38:18.852Z,101277.31
2022-12-06T04:38:41.965Z,101297.50
2022-12-06T04:39:04.038Z,101289.59
2022-12-06T04:39:26.045Z,101298.38
2022-12-06T04:39:48.620Z,101300.13
2022-12-06T04:40:11.153Z,101290.47
2022-12-06T04:40:33.883Z,101296.59
2022-12-06T04:40:55.502Z,101300.13
2022-12-06T04:41:37.259Z,101299.22
2022-12-06T04:42:17.477Z,101293.06
2022-12-06T04:42:57.890Z,101299.22
2022-12-06T04:43:38.193Z,101292.22
2022-12-06T04:43:59.947Z,101281.69
2022-12-06T04:44:22.552Z,101301.00
2022-12-06T04:44:44.650Z,101285.16
2022-12-06T04:45:07.716Z,101288.72
2022-12-06T04:45:30.360Z,101298.38
2022-12-06T04:45:51.994Z,101289.56
2022-12-06T04:46:15.591Z,101301.00
2022-12-06T04:46:37.533Z,101298.38
2022-12-06T04:47:00.024Z,101298.38
2022-12-06T04:47:22.892Z,101280.81
2022-12-06T04:47:45.871Z,101293.09
2022-12-06T04:48:07.475Z,101300.13
2022-12-06T04:48:29.043Z,101294.84
2022-12-06T04:48:50.947Z,101297.44